createdAt,value
2022-11-20T00:00:28.300Z,100740.03
2022-11-20T00:02:55.699Z,100741.72
2022-11-20T00:05:23.183Z,100743.41
2022-11-20T00:07:50.595Z,100735.38
2022-11-20T00:10:18.093Z,100741.59
2022-11-20T00:12:46.855Z,100734.72
2022-11-20T00:15:14.267Z,100732.47
2022-11-20T00:17:41.679Z,100734.81
2022-11-20T00:20:10.607Z,100729.69
2022-11-20T00:22:38.106Z,100736.63
2022-11-20T00:25:06.149Z,100739.91
2022-11-20T00:27:33.536Z,100743.72
2022-11-20T00:30:02.385Z,100733.47
2022-11-20T00:32:29.812Z,100735.78
2022-11-20T00:34:57.196Z,100733.75
2022-11-20T00:37:24.647Z,100734.56
2022-11-20T00:39:52.075Z,100733.00
2022-11-20T00:42:19.572Z,100743.97
2022-11-20T00:44:46.935Z,100731.59
2022-11-20T00:47:15.731Z,100738.91
2022-11-20T00:49:43.235Z,100743.06
2022-11-20T00:52:10.785Z,100737.19
2022-11-20T00:54:38.303Z,100737.91
2022-11-20T00:57:05.666Z,100729.63
2022-11-20T00:59:33.045Z,100736.97
2022-11-20T01:02:00.472Z,100733.63
2022-11-20T01:04:29.195Z,100729.84
2022-11-20T01:06:56.632Z,100736.28
2022-11-20T01:09:24.291Z,100734.88
2022-11-20T01:11:51.813Z,100740.22
2022-11-20T01:14:21.210Z,100737.34
2022-11-20T01:16:50.971Z,100739.13
2022-11-20T01:19:20.574Z,100738.69
2022-11-20T01:21:51.416Z,100733.59
2022-11-20T01:24:20.263Z,100730.69
2022-11-20T01:26:49.939Z,100730.66
2022-11-20T01:29:20.423Z,100725.13
2022-11-20T01:31:48.293Z,100724.47
2022-11-20T01:34:18.204Z,100728.41
2022-11-20T01:36:46.679Z,100716.94
2022-11-20T01:39:18.474Z,100716.06
2022-11-20T01:42:09.393Z,100718.69
2022-11-20T01:44:53.473Z,100721.78
2022-11-20T01:47:26.006Z,100720.34
2022-11-20T01:49:58.551Z,100716.34
2022-11-20T01:52:33.308Z,100724.75
2022-11-20T01:55:05.872Z,100718.56
2022-11-20T01:57:36.106Z,100717.38
2022-11-20T02:00:07.817Z,100714.50
2022-11-20T02:02:36.014Z,100712.72
2022-11-20T02:05:12.461Z,100716.00
2022-11-20T02:07:40.631Z,100718.38
2022-11-20T02:10:09.758Z,100713.34
2022-11-20T02:12:54.823Z,100706.63
2022-11-20T02:15:26.199Z,100711.38
2022-11-20T02:17:56.515Z,100704.66
2022-11-20T02:20:23.919Z,100701.59
2022-11-20T02:22:58.071Z,100694.91
2022-11-20T02:25:29.660Z,100696.59
2022-11-20T02:27:57.841Z,100694.47
2022-11-20T02:30:25.672Z,100700.78
2022-11-20T02:32:53.433Z,100695.38
2022-11-20T02:35:43.880Z,100693.88
2022-11-20T02:38:12.433Z,100695.97
2022-11-20T02:40:41.167Z,100690.31
2022-11-20T02:43:09.896Z,100695.75
2022-11-20T02:45:37.447Z,100701.19
2022-11-20T02:48:04.889Z,100692.72
2022-11-20T02:50:32.371Z,100685.84
2022-11-20T02:52:59.762Z,100692.25
2022-11-20T02:55:27.231Z,100698.97
2022-11-20T02:57:55.940Z,100695.75
2022-11-20T03:00:23.680Z,100692.66
2022-11-20T03:02:51.080Z,100695.44
2022-11-20T03:05:18.507Z,100698.22
2022-11-20T03:07:46.333Z,100694.56
2022-11-20T03:10:13.835Z,100684.03
2022-11-20T03:12:41.205Z,100691.91
2022-11-20T03:15:11.339Z,100690.16
2022-11-20T03:17:38.766Z,100686.34
2022-11-20T03:20:07.634Z,100682.38
2022-11-20T03:22:35.084Z,100679.75
2022-11-20T03:25:02.523Z,100679.94
2022-11-20T03:27:34.045Z,100672.41
2022-11-20T03:30:01.431Z,100676.25
2022-11-20T03:32:30.168Z,100672.69
2022-11-20T03:34:57.594Z,100677.88
2022-11-20T03:37:25.073Z,100671.34
2022-11-20T03:39:52.464Z,100676.56
2022-11-20T03:42:37.456Z,100673.63
2022-11-20T03:45:05.468Z,100670.28
2022-11-20T03:47:34.213Z,100663.88
2022-11-20T03:50:01.674Z,100663.31
2022-11-20T03:52:29.081Z,100664.50
2022-11-20T03:54:56.523Z,100671.19
2022-11-20T03:57:23.958Z,100669.22
2022-11-20T03:59:51.382Z,100670.97
2022-11-20T04:02:18.834Z,100672.75
2022-11-20T04:04:47.602Z,100665.97
2022-11-20T04:07:15.155Z,100672.44
2022-11-20T04:09:42.602Z,100666.78
2022-11-20T04:12:10.090Z,100667.38
2022-11-20T04:14:37.824Z,100663.78
2022-11-20T04:17:05.774Z,100654.75
2022-11-20T04:19:33.179Z,100663.25
2022-11-20T04:22:01.927Z,100661.75
2022-11-20T04:24:29.339Z,100672.47
2022-11-20T04:26:56.725Z,100667.44
2022-11-20T04:29:24.257Z,100670.28
2022-11-20T04:31:51.779Z,100666.78
2022-11-20T04:34:19.203Z,100669.28
2022-11-20T04:36:46.604Z,100669.03
2022-11-20T04:39:16.368Z,100667.63
2022-11-20T04:41:43.996Z,100663.69
2022-11-20T04:44:11.466Z,100659.09
2022-11-20T04:46:41.198Z,100662.38
2022-11-20T04:49:09.459Z,100660.25
2022-11-20T04:51:37.074Z,100652.25
2022-11-20T04:54:04.830Z,100660.50
2022-11-20T04:56:33.547Z,100660.88
2022-11-20T04:59:02.786Z,100660.03
2022-11-20T05:01:30.525Z,100649.59
2022-11-20T05:03:57.948Z,100651.09
2022-11-20T05:06:25.331Z,100638.47
2022-11-20T05:08:53.223Z,100649.63
2022-11-20T05:11:23.000Z,100637.25
2022-11-20T05:13:53.284Z,100633.94
2022-11-20T05:16:23.000Z,100632.97
2022-11-20T05:18:51.153Z,100622.47
2022-11-20T05:21:19.534Z,100619.34
2022-11-20T05:23:47.589Z,100628.59
2022-11-20T05:26:17.354Z,100631.03
2022-11-20T05:28:44.801Z,100627.00
2022-11-20T05:31:15.062Z,100622.16
2022-11-20T05:33:43.610Z,100619.34
2022-11-20T05:36:11.757Z,100625.78
2022-11-20T05:38:39.454Z,100620.22
2022-11-20T05:41:07.697Z,100614.69
2022-11-20T05:43:36.052Z,100618.97
2022-11-20T05:46:03.877Z,100623.78
2022-11-20T05:48:35.185Z,100620.44
2022-11-20T05:51:04.531Z,100606.81
2022-11-20T05:53:31.947Z,100604.34
2022-11-20T05:56:00.340Z,100610.38
2022-11-20T05:58:28.595Z,100609.34
2022-11-20T06:00:56.319Z,100607.34
2022-11-20T06:03:23.690Z,100608.22
2022-11-20T06:05:52.452Z,100609.69
2022-11-20T06:08:19.965Z,100608.88
2022-11-20T06:10:47.426Z,100603.13
2022-11-20T06:13:14.833Z,100608.91
2022-11-20T06:15:42.252Z,100606.16
2022-11-20T06:18:09.641Z,100607.38
2022-11-20T06:20:41.915Z,100606.16
2022-11-20T06:23:11.043Z,100609.88
2022-11-20T06:25:39.631Z,100602.47
2022-11-20T06:28:07.001Z,100612.63
2022-11-20T06:30:34.881Z,100604.75
2022-11-20T06:33:02.273Z,100608.84
2022-11-20T06:35:29.706Z,100609.97
2022-11-20T06:37:57.672Z,100603.69
2022-11-20T06:40:26.426Z,100600.16
2022-11-20T06:42:55.606Z,100610.84
2022-11-20T06:45:23.150Z,100597.31
2022-11-20T06:47:50.551Z,100603.81
2022-11-20T06:50:18.152Z,100594.88
2022-11-20T06:52:45.544Z,100596.19
2022-11-20T06:55:12.923Z,100599.59
2022-11-20T06:57:41.626Z,100598.28
2022-11-20T07:00:10.154Z,100599.78
2022-11-20T07:02:37.577Z,100596.84
2022-11-20T07:05:05.675Z,100593.94
2022-11-20T07:07:33.169Z,100590.25
2022-11-20T07:10:00.594Z,100592.56
2022-11-20T07:12:28.446Z,100592.41
2022-11-20T07:14:57.535Z,100587.50
2022-11-20T07:17:24.960Z,100603.38
2022-11-20T07:19:52.325Z,100600.97
2022-11-20T07:22:22.524Z,100593.69
2022-11-20T07:24:50.177Z,100596.19
2022-11-20T07:27:17.571Z,100591.84
2022-11-20T07:29:44.972Z,100598.50
2022-11-20T07:32:13.707Z,100598.41
2022-11-20T07:34:41.065Z,100600.63
2022-11-20T07:37:10.452Z,100594.25
2022-11-20T07:39:38.101Z,100591.50
2022-11-20T07:42:05.591Z,100592.13
2022-11-20T07:44:32.997Z,100591.16
2022-11-20T07:47:00.453Z,100587.53
2022-11-20T07:49:29.237Z,100581.31
2022-11-20T07:52:00.430Z,100582.94
2022-11-20T07:54:30.598Z,100579.38
2022-11-20T07:56:57.982Z,100582.84
2022-11-20T07:59:25.557Z,100589.13
2022-11-20T08:01:52.921Z,100591.16
2022-11-20T08:04:20.317Z,100591.66
2022-11-20T08:06:49.324Z,100588.56
2022-11-20T08:09:16.718Z,100579.88
2022-11-20T08:12:01.932Z,100573.56
2022-11-20T08:14:29.335Z,100580.59
2022-11-20T08:16:56.715Z,100572.63
2022-11-20T08:19:24.223Z,100573.25
2022-11-20T08:21:53.257Z,100584.56
2022-11-20T08:24:20.667Z,100579.34
2022-11-20T08:26:48.038Z,100573.81
2022-11-20T08:29:15.475Z,100577.84
2022-11-20T08:31:42.890Z,100580.25
2022-11-20T08:34:12.872Z,100569.56
2022-11-20T08:36:42.467Z,100568.81
2022-11-20T08:39:13.963Z,100566.56
2022-11-20T08:41:41.333Z,100562.66
2022-11-20T08:44:09.726Z,100560.41
2022-11-20T08:46:38.741Z,100562.03
2022-11-20T08:49:06.939Z,100565.91
2022-11-20T08:51:34.624Z,100565.78
2022-11-20T08:54:02.408Z,100565.59
2022-11-20T08:56:31.664Z,100582.78
2022-11-20T09:01:47.702Z,100551.78
2022-11-20T09:04:15.502Z,100536.16
2022-11-20T09:06:43.094Z,100532.56
2022-11-20T09:09:10.480Z,100549.91
2022-11-20T09:11:39.197Z,100559.00
2022-11-20T09:14:06.632Z,100558.19
2022-11-20T09:16:34.106Z,100566.28
2022-11-20T09:19:28.648Z,100568.78
2022-11-20T09:21:49.345Z,100580.16
2022-11-20T09:24:16.719Z,100582.81
2022-11-20T09:26:45.530Z,100582.63
2022-11-20T09:29:12.917Z,100573.69
2022-11-20T09:31:40.358Z,100582.50
2022-11-20T09:34:07.809Z,100581.97
2022-11-20T09:36:35.270Z,100573.69
2022-11-20T09:39:02.883Z,100570.59
2022-11-20T09:42:06.401Z,100571.13
2022-11-20T09:44:47.180Z,100569.31
2022-11-20T09:47:24.636Z,100569.31
2022-11-20T09:50:04.034Z,100571.09
2022-11-20T09:52:39.555Z,100561.38
2022-11-20T09:55:10.696Z,100563.09
2022-11-20T09:57:42.387Z,100562.00
2022-11-20T10:00:13.998Z,100554.19
2022-11-20T10:02:47.667Z,100549.78
2022-11-20T10:05:20.344Z,100546.91
2022-11-20T10:07:56.137Z,100551.31
2022-11-20T10:10:32.889Z,100549.47
2022-11-20T10:13:16.348Z,100543.69
2022-11-20T10:15:55.255Z,100548.31
2022-11-20T10:18:35.484Z,100547.03
2022-11-20T10:21:11.598Z,100545.94
2022-11-20T10:24:26.181Z,100534.91
2022-11-20T10:27:05.650Z,100539.38
2022-11-20T10:29:36.822Z,100525.81
2022-11-20T10:32:09.568Z,100524.94
2022-11-20T10:34:48.795Z,100522.84
2022-11-20T10:37:21.005Z,100514.59
2022-11-20T10:39:56.074Z,100515.81
2022-11-20T10:42:30.931Z,100512.41
2022-11-20T10:45:13.253Z,100522.38
2022-11-20T10:47:40.642Z,100515.03
2022-11-20T10:50:22.536Z,100510.28
2022-11-20T10:52:57.894Z,100507.44
2022-11-20T10:55:34.813Z,100516.19
2022-11-20T10:58:11.906Z,100504.59
2022-11-20T11:00:40.758Z,100511.69
2022-11-20T11:03:22.522Z,100508.56
2022-11-20T11:05:56.003Z,100507.56
2022-11-20T11:08:23.626Z,100514.31
2022-11-20T11:10:55.688Z,100507.38
2022-11-20T11:13:24.146Z,100507.00
2022-11-20T11:15:53.484Z,100508.13
2022-11-20T11:18:28.352Z,100505.41
2022-11-20T11:20:57.465Z,100507.78
2022-11-20T11:23:32.746Z,100503.88
2022-11-20T11:26:01.860Z,100508.84
2022-11-20T11:28:29.854Z,100502.56
2022-11-20T11:30:58.647Z,100503.78
2022-11-20T11:33:28.302Z,100500.06
2022-11-20T11:35:59.076Z,100487.97
2022-11-20T11:38:32.655Z,100502.41
2022-11-20T11:41:00.832Z,100499.25
2022-11-20T11:44:03.993Z,100500.41
2022-11-20T11:46:35.535Z,100501.22
2022-11-20T11:49:14.502Z,100502.84
2022-11-20T11:51:52.312Z,100490.97
2022-11-20T11:54:25.103Z,100495.06
2022-11-20T11:56:53.574Z,100490.66
2022-11-20T11:59:29.093Z,100492.00
2022-11-20T12:02:03.946Z,100498.69
2022-11-20T12:07:18.244Z,100482.13
2022-11-20T12:09:54.098Z,100494.63
2022-11-20T12:12:26.709Z,100483.19
2022-11-20T12:14:57.205Z,100473.19
2022-11-20T12:17:26.087Z,100473.78
2022-11-20T12:19:53.684Z,100479.25
2022-11-20T12:22:32.734Z,100467.38
2022-11-20T12:25:06.036Z,100465.78
2022-11-20T12:27:50.523Z,100459.88
2022-11-20T12:30:20.663Z,100465.88
2022-11-20T12:33:19.917Z,100458.59
2022-11-20T12:36:01.454Z,100459.41
2022-11-20T12:38:44.211Z,100453.22
2022-11-20T12:41:38.419Z,100451.47
2022-11-20T12:44:37.615Z,100450.78
2022-11-20T12:47:18.226Z,100450.72
2022-11-20T12:49:52.582Z,100456.09
2022-11-20T12:52:34.095Z,100451.94
2022-11-20T12:55:15.005Z,100442.31
2022-11-20T12:57:50.722Z,100440.34
2022-11-20T13:00:21.234Z,100446.63
2022-11-20T13:03:08.788Z,100442.94
2022-11-20T13:05:47.278Z,100447.69
2022-11-20T13:08:22.367Z,100434.31
2022-11-20T13:10:58.548Z,100430.66
2022-11-20T13:13:32.982Z,100432.59
2022-11-20T13:16:06.542Z,100437.19
2022-11-20T13:18:40.165Z,100443.44
2022-11-20T13:21:17.549Z,100440.91
2022-11-20T13:23:44.981Z,100438.28
2022-11-20T13:26:24.594Z,100434.44
2022-11-20T13:29:04.454Z,100427.88
2022-11-20T13:31:34.334Z,100421.97
2022-11-20T13:34:05.104Z,100427.44
2022-11-20T13:36:35.925Z,100424.09
2022-11-20T13:39:04.133Z,100427.38
2022-11-20T13:41:36.158Z,100422.16
2022-11-20T13:44:13.051Z,100422.44
2022-11-20T13:46:44.300Z,100435.94
2022-11-20T13:49:20.111Z,100425.22
2022-11-20T13:51:51.540Z,100430.66
2022-11-20T13:54:52.621Z,100426.41
2022-11-20T13:57:38.698Z,100434.28
2022-11-20T14:00:14.031Z,100433.34
2022-11-20T14:02:42.541Z,100434.28
2022-11-20T14:05:21.511Z,100435.50
2022-11-20T14:07:52.782Z,100434.03
2022-11-20T14:10:29.931Z,100442.69
2022-11-20T14:12:59.355Z,100447.78
2022-11-20T14:15:28.950Z,100457.53
2022-11-20T14:17:56.707Z,100443.75
2022-11-20T14:20:27.381Z,100447.19
2022-11-20T14:22:57.306Z,100442.84
2022-11-20T14:25:28.097Z,100447.84
2022-11-20T14:27:57.406Z,100437.00
2022-11-20T14:30:26.724Z,100443.69
2022-11-20T14:32:57.506Z,100435.03
2022-11-20T14:35:27.998Z,100445.03
2022-11-20T14:37:57.654Z,100437.09
2022-11-20T14:40:34.784Z,100440.19
2022-11-20T14:43:02.247Z,100438.22
2022-11-20T14:45:30.187Z,100426.22
2022-11-20T14:47:59.868Z,100425.91
2022-11-20T14:50:29.386Z,100415.31
2022-11-20T14:53:00.378Z,100418.44
2022-11-20T14:55:29.778Z,100414.00
2022-11-20T14:57:58.001Z,100413.91
2022-11-20T15:00:26.286Z,100416.53
2022-11-20T15:02:54.361Z,100426.56
2022-11-20T15:05:24.357Z,100419.56
2022-11-20T15:07:54.184Z,100415.00
2022-11-20T15:10:25.420Z,100427.69
2022-11-20T15:12:54.757Z,100423.72
2022-11-20T15:15:26.927Z,100423.63
2022-11-20T15:17:54.888Z,100418.28
2022-11-20T15:20:25.952Z,100410.81
2022-11-20T15:22:53.349Z,100416.81
2022-11-20T15:25:21.508Z,100416.34
2022-11-20T15:27:54.972Z,100416.69
2022-11-20T15:30:23.429Z,100413.44
2022-11-20T15:32:50.820Z,100409.97
2022-11-20T15:35:18.510Z,100412.94
2022-11-20T15:37:45.933Z,100403.16
2022-11-20T15:40:14.117Z,100412.16
2022-11-20T15:43:02.379Z,100404.34
2022-11-20T15:45:35.468Z,100398.22
2022-11-20T15:48:03.293Z,100397.59
2022-11-20T15:50:37.997Z,100406.03
2022-11-20T15:53:06.062Z,100397.19
2022-11-20T15:55:33.588Z,100385.38
2022-11-20T15:58:00.975Z,100388.94
2022-11-20T16:00:28.470Z,100390.28
2022-11-20T16:02:57.177Z,100384.31
2022-11-20T16:05:25.011Z,100392.81
2022-11-20T16:07:52.912Z,100392.53
2022-11-20T16:10:20.369Z,100390.22
2022-11-20T16:13:05.362Z,100392.41
2022-11-20T16:15:48.825Z,100392.72
2022-11-20T16:18:21.457Z,100385.78
2022-11-20T16:20:53.797Z,100383.84
2022-11-20T16:23:22.244Z,100386.53
2022-11-20T16:25:50.199Z,100388.03
2022-11-20T16:28:19.339Z,100382.84
2022-11-20T16:30:47.182Z,100389.38
2022-11-20T16:33:16.139Z,100391.47
2022-11-20T16:35:45.362Z,100394.28
2022-11-20T16:38:12.815Z,100386.84
2022-11-20T16:40:40.266Z,100388.81
2022-11-20T16:43:11.493Z,100393.34
2022-11-20T16:45:43.485Z,100382.09
2022-11-20T16:48:15.419Z,100387.28
2022-11-20T16:50:52.262Z,100396.03
2022-11-20T16:53:20.766Z,100394.81
2022-11-20T16:55:48.322Z,100396.81
2022-11-20T16:58:16.027Z,100391.09
2022-11-20T17:00:49.960Z,100396.63
2022-11-20T17:03:18.891Z,100398.03
2022-11-20T17:05:46.333Z,100393.84
2022-11-20T17:08:15.030Z,100397.91
2022-11-20T17:10:42.752Z,100387.13
2022-11-20T17:13:10.147Z,100394.94
2022-11-20T17:15:37.536Z,100386.41
2022-11-20T17:18:05.171Z,100381.84
2022-11-20T17:20:32.615Z,100386.09
2022-11-20T17:22:59.987Z,100382.94
2022-11-20T17:25:28.710Z,100387.84
2022-11-20T17:27:56.077Z,100392.06
2022-11-20T17:30:23.449Z,100380.47
2022-11-20T17:32:50.921Z,100375.72
2022-11-20T17:35:18.296Z,100387.94
2022-11-20T17:37:45.688Z,100384.44
2022-11-20T17:40:13.372Z,100391.69
2022-11-20T17:42:42.089Z,100384.31
2022-11-20T17:45:09.631Z,100383.38
2022-11-20T17:47:37.227Z,100387.97
2022-11-20T17:50:04.903Z,100377.19
2022-11-20T17:52:32.376Z,100374.66
2022-11-20T17:54:59.755Z,100373.53
2022-11-20T17:57:44.632Z,100373.69
2022-11-20T18:00:16.479Z,100375.94
2022-11-20T18:02:43.849Z,100369.16
2022-11-20T18:05:11.423Z,100374.63
2022-11-20T18:07:41.812Z,100362.06
2022-11-20T18:10:10.926Z,100358.09
2022-11-20T18:12:38.372Z,100367.44
2022-11-20T18:15:06.282Z,100362.06
2022-11-20T18:17:35.259Z,100352.03
2022-11-20T18:22:50.078Z,100355.41
2022-11-20T18:25:17.490Z,100358.59
2022-11-20T18:27:45.232Z,100357.53
2022-11-20T18:30:14.077Z,100347.53
2022-11-20T18:32:42.868Z,100339.78
2022-11-20T18:35:10.745Z,100357.47
2022-11-20T18:37:38.098Z,100352.22
2022-11-20T18:40:06.639Z,100351.03
2022-11-20T18:42:51.824Z,100356.66
2022-11-20T18:45:19.241Z,100352.50
2022-11-20T18:47:47.958Z,100350.34
2022-11-20T18:50:15.334Z,100359.09
2022-11-20T18:52:44.567Z,100355.75
2022-11-20T18:55:12.991Z,100356.66
2022-11-20T18:57:40.410Z,100354.56
2022-11-20T19:00:09.920Z,100344.75
2022-11-20T19:02:42.994Z,100342.47
2022-11-20T19:05:12.417Z,100338.91
2022-11-20T19:07:40.272Z,100339.91
2022-11-20T19:10:08.572Z,100340.75
2022-11-20T19:12:35.987Z,100339.88
2022-11-20T19:15:03.621Z,100345.38
2022-11-20T19:17:31.074Z,100353.03
2022-11-20T19:19:58.570Z,100345.06
2022-11-20T19:22:27.330Z,100354.50
2022-11-20T19:24:54.719Z,100352.88
2022-11-20T19:27:22.170Z,100360.31
2022-11-20T19:29:49.829Z,100355.00
2022-11-20T19:32:17.263Z,100356.63
2022-11-20T19:34:44.692Z,100350.63
2022-11-20T19:37:12.140Z,100345.53
2022-11-20T19:39:40.868Z,100342.47
2022-11-20T19:42:08.304Z,100351.09
2022-11-20T19:44:35.838Z,100346.41
2022-11-20T19:47:08.954Z,100351.59
2022-11-20T19:49:40.055Z,100357.06
2022-11-20T19:52:07.450Z,100365.03
2022-11-20T19:54:34.931Z,100352.47
2022-11-20T19:57:03.650Z,100342.84
2022-11-20T19:59:31.125Z,100335.97
2022-11-20T20:01:58.574Z,100333.59
2022-11-20T20:04:26.119Z,100337.94
2022-11-20T20:06:53.497Z,100332.09
2022-11-20T20:09:23.596Z,100331.13
2022-11-20T20:11:51.229Z,100327.94
2022-11-20T20:14:20.044Z,100329.97
2022-11-20T20:16:47.766Z,100328.84
2022-11-20T20:19:16.419Z,100321.03
2022-11-20T20:21:44.027Z,100316.13
2022-11-20T20:24:12.946Z,100311.69
2022-11-20T20:26:40.756Z,100317.16
2022-11-20T20:29:08.181Z,100316.78
2022-11-20T20:31:36.923Z,100320.72
2022-11-20T20:34:05.917Z,100321.75
2022-11-20T20:36:33.557Z,100312.06
2022-11-20T20:39:02.615Z,100302.28
2022-11-20T20:41:30.090Z,100297.78
2022-11-20T20:44:15.251Z,100301.38
2022-11-20T20:46:43.984Z,100295.44
2022-11-20T20:49:11.351Z,100304.97
2022-11-20T20:51:38.753Z,100301.38
2022-11-20T20:54:06.514Z,100290.50
2022-11-20T20:56:33.917Z,100287.63
2022-11-20T20:59:01.414Z,100289.44
2022-11-20T21:01:29.615Z,100289.66
2022-11-20T21:03:58.999Z,100285.81
2022-11-20T21:06:26.634Z,100293.44
2022-11-20T21:08:55.821Z,100287.50
2022-11-20T21:11:23.322Z,100292.88
2022-11-20T21:13:50.840Z,100284.47
2022-11-20T21:16:20.645Z,100285.03
2022-11-20T21:18:48.045Z,100279.69
2022-11-20T21:21:35.115Z,100273.72
2022-11-20T21:24:02.814Z,100273.72
2022-11-20T21:26:30.251Z,100272.94
2022-11-20T21:28:57.895Z,100270.38
2022-11-20T21:31:27.497Z,100262.94
2022-11-20T21:33:56.397Z,100266.22
2022-11-20T21:36:26.812Z,100253.91
2022-11-20T21:38:55.522Z,100255.78
2022-11-20T21:41:24.382Z,100256.28
2022-11-20T21:44:23.605Z,100254.25
2022-11-20T21:46:41.212Z,100256.53
2022-11-20T21:49:08.691Z,100242.13
2022-11-20T21:51:37.442Z,100245.13
2022-11-20T21:54:05.108Z,100236.31
2022-11-20T21:56:32.515Z,100231.41
2022-11-20T21:59:00.502Z,100239.13
2022-11-20T22:01:30.219Z,100240.66
2022-11-20T22:03:59.223Z,100236.00
2022-11-20T22:06:27.997Z,100235.00
2022-11-20T22:08:56.715Z,100229.06
2022-11-20T22:11:24.136Z,100225.16
2022-11-20T22:14:09.017Z,100224.72
2022-11-20T22:16:37.534Z,100220.19
2022-11-20T22:19:06.361Z,100223.75
2022-11-20T22:21:34.359Z,100225.28
2022-11-20T22:24:03.566Z,100220.28
2022-11-20T22:26:40.008Z,100214.56
2022-11-20T22:29:08.902Z,100221.63
2022-11-20T22:31:36.320Z,100216.53
2022-11-20T22:34:04.513Z,100212.28
2022-11-20T22:36:33.024Z,100218.88
2022-11-20T22:39:05.179Z,100215.53
2022-11-20T22:41:33.107Z,100205.47
2022-11-20T22:44:01.966Z,100211.06
2022-11-20T22:46:31.913Z,100201.56
2022-11-20T22:49:01.168Z,100201.56
2022-11-20T22:51:29.988Z,100202.59
2022-11-20T22:53:57.672Z,100196.19
2022-11-20T22:56:26.727Z,100191.41
2022-11-20T22:58:55.234Z,100186.88
2022-11-20T23:01:24.667Z,100184.06
2022-11-20T23:03:53.963Z,100180.13
2022-11-20T23:06:22.453Z,100178.53
2022-11-20T23:08:50.926Z,100179.09
2022-11-20T23:11:20.775Z,100176.91
2022-11-20T23:13:54.115Z,100172.19
2022-11-20T23:16:21.531Z,100175.56
2022-11-20T23:18:48.968Z,100158.19
2022-11-20T23:21:18.844Z,100167.31
2022-11-20T23:23:49.684Z,100156.63
2022-11-20T23:26:18.303Z,100161.66
2022-11-20T23:28:46.006Z,100162.88
2022-11-20T23:31:16.159Z,100156.56
2022-11-20T23:33:45.844Z,100154.50
2022-11-20T23:36:13.999Z,100154.63
2022-11-20T23:38:42.138Z,100145.88
2022-11-20T23:41:09.782Z,100148.94
2022-11-20T23:43:37.187Z,100150.63
2022-11-20T23:46:05.289Z,100130.09
2022-11-20T23:48:36.235Z,100138.31
2022-11-20T23:51:04.812Z,100130.72
2022-11-20T23:53:32.732Z,100133.53
2022-11-20T23:56:02.793Z,100123.19
2022-11-20T23:58:32.676Z,100116.19
